Time;durP1;ratioP1;P1;durP2;ratioP2;P2;SDS_P1;SDS_P2;PMS_P1;PMS_P2;Temp;Humidity;BMP_temperature;BMP_pressure;BME280_temperature;BME280_humidity;BME280_pressure;Samples;Min_cycle;Max_cycle;Signal;HPM_P1;HPM_P2
2023/05/06 00:01:02;;;;;;;8.63;7.65;;;;;;;14.52;100.00;101644.19;5074498;28;20487;-77
2023/05/06 00:03:28;;;;;;;9.52;7.55;;;;;;;14.76;100.00;101689.84;5073318;28;20028;-78
2023/05/06 00:05:53;;;;;;;10.25;7.80;;;;;;;14.56;100.00;101711.53;5073924;28;20127;-77
2023/05/06 00:08:19;;;;;;;11.60;7.78;;;;;;;14.78;100.00;101707.72;5072722;28;20115;-77
2023/05/06 00:10:44;;;;;;;12.18;7.43;;;;;;;14.30;100.00;101624.94;5072951;28;20467;-78
2023/05/06 00:13:10;;;;;;;9.85;8.05;;;;;;;14.01;100.00;101634.78;5073080;28;20035;-77
2023/05/06 00:15:36;;;;;;;10.25;7.53;;;;;;;14.64;100.00;101666.16;5073411;28;20042;-77
2023/05/06 00:18:02;;;;;;;10.50;8.00;;;;;;;14.48;100.00;101655.34;5072807;28;20037;-77
2023/05/06 00:20:28;;;;;;;10.45;8.10;;;;;;;14.07;100.00;101591.19;5074020;28;20071;-77
2023/05/06 00:22:54;;;;;;;10.77;7.60;;;;;;;14.53;100.00;101598.97;5072583;28;20093;-77
2023/05/06 00:25:20;;;;;;;10.23;7.22;;;;;;;14.95;100.00;101648.53;5073352;28;20071;-78
2023/05/06 00:27:46;;;;;;;9.65;7.43;;;;;;;15.05;100.00;101657.75;5073129;28;20028;-77
2023/05/06 00:30:11;;;;;;;8.88;6.45;;;;;;;14.55;100.00;101592.09;5072653;28;20031;-78
2023/05/06 00:32:37;;;;;;;9.88;7.28;;;;;;;14.75;100.00;101641.22;5073329;28;20039;-78
2023/05/06 00:35:02;;;;;;;10.45;7.72;;;;;;;14.56;100.00;101616.81;5072669;28;20032;-77
2023/05/06 00:37:28;;;;;;;11.68;7.40;;;;;;;14.93;100.00;101660.53;5072968;28;20020;-77
2023/05/06 00:39:54;;;;;;;8.93;7.85;;;;;;;14.63;100.00;101605.59;5073818;28;20088;-79
2023/05/06 00:42:22;;;;;;;8.80;7.07;;;;;;;14.30;100.00;101629.25;5073671;28;20028;-80
2023/05/06 00:44:48;;;;;;;10.18;7.78;;;;;;;14.08;100.00;101546.00;5072315;28;20032;-77
2023/05/06 00:47:13;;;;;;;9.70;7.65;;;;;;;14.57;100.00;101633.88;5088288;28;20036;-79
2023/05/06 00:49:39;;;;;;;10.85;7.78;;;;;;;14.26;100.00;101582.34;5073203;28;20102;-79
2023/05/06 00:52:05;;;;;;;10.18;7.47;;;;;;;14.74;100.00;101622.47;5073916;28;20064;-79
2023/05/06 00:54:30;;;;;;;9.27;7.70;;;;;;;14.66;100.00;101619.19;5073720;28;20036;-79
2023/05/06 00:56:56;;;;;;;9.77;7.18;;;;;;;14.76;100.00;101614.72;5073034;28;20029;-79
2023/05/06 00:59:22;;;;;;;8.63;7.40;;;;;;;14.71;100.00;101601.19;5073292;28;20051;-79
2023/05/06 01:01:47;;;;;;;9.50;6.82;;;;;;;14.33;100.00;101530.22;5072366;28;20483;-79
2023/05/06 01:04:14;;;;;;;9.70;7.40;;;;;;;14.94;100.00;101627.19;5072045;28;20032;-79
2023/05/06 01:07:07;;;;;;;10.70;7.40;;;;;;;13.99;100.00;101479.66;5073265;28;20082;-78
2023/05/06 01:09:40;;;;;;;10.05;6.88;;;;;;;14.85;100.00;101650.44;5073105;28;20127;-79
2023/05/06 01:12:15;;;;;;;10.20;7.28;;;;;;;14.60;100.00;101598.81;5073325;28;20107;-78
2023/05/06 01:14:48;;;;;;;12.38;7.15;;;;;;;14.76;100.00;101660.81;5072909;28;20448;-78
2023/05/06 01:17:18;;;;;;;9.38;7.07;;;;;;;14.78;100.00;101630.91;5072387;28;20025;-80
2023/05/06 01:19:48;;;;;;;9.00;7.00;;;;;;;14.63;100.00;101613.28;5072277;28;20056;-79
2023/05/06 01:22:15;;;;;;;8.32;7.03;;;;;;;14.94;100.00;101655.38;5073117;28;20032;-79
2023/05/06 01:24:45;;;;;;;9.88;6.90;;;;;;;14.82;100.00;101630.00;5072653;28;20043;-78
2023/05/06 01:27:12;;;;;;;7.78;6.85;;;;;;;14.94;100.00;101654.53;5069244;28;20036;-79
2023/05/06 01:29:40;;;;;;;8.35;6.40;;;;;;;15.04;100.00;101664.56;5072425;28;20059;-80
2023/05/06 01:32:20;;;;;;;8.77;6.72;;;;;;;14.51;100.00;101598.16;5072968;28;20120;-80
2023/05/06 01:34:58;;;;;;;8.38;6.90;;;;;;;15.06;100.00;101695.28;5071931;28;20032;-80
2023/05/06 01:37:30;;;;;;;7.45;6.60;;;;;;;15.11;100.00;101708.88;5072877;28;20035;-80
2023/05/06 01:39:58;;;;;;;10.43;6.90;;;;;;;14.94;100.00;101675.00;5073113;28;20033;-79
2023/05/06 01:42:26;;;;;;;10.43;6.68;;;;;;;14.89;100.00;101712.69;5072311;28;20040;-78
2023/05/06 01:44:55;;;;;;;7.90;6.40;;;;;;;14.31;100.00;101605.31;5071927;28;20040;-77
2023/05/06 01:47:22;;;;;;;11.27;6.82;;;;;;;14.70;100.00;101655.81;5071156;28;20033;-77
2023/05/06 01:49:47;;;;;;;12.35;6.75;;;;;;;14.56;100.00;101638.13;5072114;28;20059;-78
2023/05/06 01:52:16;;;;;;;8.60;6.90;;;;;;;14.32;100.00;101591.69;5070498;28;20447;-78
2023/05/06 01:54:41;;;;;;;10.63;7.45;;;;;;;14.47;100.00;101630.63;5071561;28;20036;-78
2023/05/06 01:57:06;;;;;;;9.60;7.05;;;;;;;14.66;100.00;101661.84;5072624;28;20081;-78
2023/05/06 01:59:32;;;;;;;8.85;7.22;;;;;;;14.79;100.00;101671.03;5070873;28;20082;-78
2023/05/06 02:01:57;;;;;;;9.05;7.30;;;;;;;14.36;100.00;101596.69;5071684;28;20380;-79
2023/05/06 02:04:23;;;;;;;10.73;7.05;;;;;;;14.30;100.00;101604.47;5071716;28;20064;-78
2023/05/06 02:06:48;;;;;;;9.45;7.30;;;;;;;14.54;100.00;101656.94;5071144;28;20506;-77
2023/05/06 02:09:13;;;;;;;9.20;7.95;;;;;;;14.03;100.00;101573.38;5072067;28;20036;-78
2023/05/06 02:11:39;;;;;;;11.82;7.65;;;;;;;13.72;100.00;101561.09;5072285;28;20032;-78
2023/05/06 02:14:04;;;;;;;9.40;7.47;;;;;;;14.55;100.00;101622.81;5071187;28;20036;-78
2023/05/06 02:16:30;;;;;;;10.65;7.47;;;;;;;14.60;100.00;101628.69;5071930;28;20602;-78
2023/05/06 02:18:55;;;;;;;11.05;8.00;;;;;;;14.33;100.00;101575.44;5071814;28;20024;-78
2023/05/06 02:21:21;;;;;;;7.95;7.03;;;;;;;14.62;100.00;101609.88;5071920;28;20104;-78
2023/05/06 02:23:47;;;;;;;9.40;7.18;;;;;;;14.80;100.00;101611.25;5071842;28;20035;-78
2023/05/06 02:26:12;;;;;;;9.15;7.22;;;;;;;14.73;100.00;101627.63;5070864;28;20032;-78
2023/05/06 02:28:38;;;;;;;10.77;7.15;;;;;;;14.66;100.00;101624.31;5072135;28;20034;-78
2023/05/06 02:31:03;;;;;;;9.50;6.68;;;;;;;14.29;100.00;101573.81;5069030;28;20028;-78
2023/05/06 02:33:28;;;;;;;9.23;6.72;;;;;;;13.99;100.00;101535.91;5071256;28;20029;-77
2023/05/06 02:35:54;;;;;;;8.43;7.40;;;;;;;14.03;100.00;101558.03;5071776;28;20037;-77
2023/05/06 02:38:20;;;;;;;9.18;7.13;;;;;;;14.56;100.00;101597.19;5070231;28;20036;-78
2023/05/06 02:40:45;;;;;;;9.95;7.80;;;;;;;14.24;100.00;101558.50;5070799;28;20020;-78
2023/05/06 02:43:11;;;;;;;10.77;7.95;;;;;;;14.03;100.00;101548.63;5070231;28;20032;-77
2023/05/06 02:45:36;;;;;;;10.60;7.88;;;;;;;14.01;100.00;101522.25;5069916;28;20115;-77
2023/05/06 02:48:02;;;;;;;12.75;7.72;;;;;;;14.00;100.00;101520.56;5070952;28;20029;-77
2023/05/06 02:50:27;;;;;;;11.13;8.02;;;;;;;14.34;100.00;101566.91;5071504;28;20031;-76
2023/05/06 02:52:53;;;;;;;11.57;7.90;;;;;;;14.17;100.00;101564.59;5071200;28;20101;-75
2023/05/06 02:55:18;;;;;;;12.90;8.13;;;;;;;13.55;100.00;101444.63;5070970;28;20078;-78
2023/05/06 02:57:43;;;;;;;8.68;7.63;;;;;;;14.21;100.00;101497.16;5070342;28;20025;-76
2023/05/06 03:00:09;;;;;;;8.48;7.28;;;;;;;13.94;100.00;101478.03;5069746;28;20048;-78
2023/05/06 03:02:38;;;;;;;14.45;8.70;;;;;;;14.31;100.00;101546.47;5071234;28;20029;-78
2023/05/06 03:05:04;;;;;;;12.05;7.95;;;;;;;14.36;100.00;101547.25;5074316;28;20060;-77
2023/05/06 03:07:30;;;;;;;9.45;8.32;;;;;;;13.73;100.00;101482.66;5070719;28;20025;-77
2023/05/06 03:09:55;;;;;;;15.23;8.40;;;;;;;14.06;100.00;101491.50;5071558;28;20419;-77
2023/05/06 03:12:21;;;;;;;11.77;9.15;;;;;;;14.00;100.00;101512.91;5074219;28;20032;-79
2023/05/06 03:14:46;;;;;;;13.85;9.93;;;;;;;13.66;100.00;101443.59;5074876;28;20123;-79
2023/05/06 03:17:12;;;;;;;12.43;9.20;;;;;;;14.07;100.00;101506.78;5063575;28;20511;-79
2023/05/06 03:19:37;;;;;;;13.50;9.35;;;;;;;14.21;100.00;101483.53;5054624;28;20048;-77
2023/05/06 03:22:03;;;;;;;10.45;8.55;;;;;;;14.31;100.00;101479.94;5053889;28;20040;-77
2023/05/06 03:24:28;;;;;;;11.48;8.23;;;;;;;13.98;100.00;101432.81;5054790;28;20033;-78
2023/05/06 03:26:53;;;;;;;13.05;8.20;;;;;;;14.18;100.00;101455.47;5063672;28;20029;-78
2023/05/06 03:29:19;;;;;;;12.80;7.35;;;;;;;13.93;100.00;101427.78;5068735;28;20032;-76
2023/05/06 03:31:44;;;;;;;11.40;7.78;;;;;;;13.82;100.00;101416.91;5074795;28;20029;-80
2023/05/06 03:34:10;;;;;;;12.10;7.72;;;;;;;14.34;100.00;101473.06;5073456;28;20052;-80
2023/05/06 03:36:35;;;;;;;9.50;7.57;;;;;;;14.10;100.00;101407.00;5067528;28;20060;-78
2023/05/06 03:39:00;;;;;;;11.27;7.45;;;;;;;14.27;100.00;101468.91;5061105;28;20055;-78
2023/05/06 03:41:26;;;;;;;9.68;7.57;;;;;;;14.64;100.00;101535.59;5090880;28;20119;-78
2023/05/06 03:43:52;;;;;;;11.73;7.60;;;;;;;14.68;100.00;101532.09;5074852;28;20036;-77
2023/05/06 03:46:18;;;;;;;10.10;7.82;;;;;;;14.74;100.00;101547.34;5056319;28;20146;-78
2023/05/06 03:48:43;;;;;;;11.32;7.88;;;;;;;14.61;100.00;101518.59;5070407;28;20123;-77
2023/05/06 03:51:09;;;;;;;9.60;7.95;;;;;;;14.14;100.00;101516.06;5063258;28;20525;-77
2023/05/06 03:53:34;;;;;;;9.88;8.35;;;;;;;14.23;100.00;101505.66;5073045;28;20060;-77
2023/05/06 03:56:00;;;;;;;11.82;8.45;;;;;;;14.55;100.00;101517.88;5075039;28;20452;-77
2023/05/06 03:58:26;;;;;;;12.50;9.40;;;;;;;14.60;100.00;101577.50;5074220;28;20230;-79
2023/05/06 04:00:52;;;;;;;13.93;11.13;;;;;;;14.34;100.00;101523.41;5074351;28;20028;-78
2023/05/06 04:03:17;;;;;;;13.05;10.85;;;;;;;14.47;100.00;101543.63;5073933;28;20380;-78
2023/05/06 04:05:43;;;;;;;10.80;8.73;;;;;;;15.01;100.00;101572.44;5074347;28;20136;-77
2023/05/06 04:08:08;;;;;;;8.88;7.95;;;;;;;15.18;100.00;101592.56;5074006;28;20054;-78
2023/05/06 04:10:39;;;;;;;10.15;8.57;;;;;;;14.93;100.00;101565.75;5074283;28;20487;-78
2023/05/06 04:13:05;;;;;;;10.75;7.75;;;;;;;15.34;100.00;101628.09;5072970;28;20036;-77
2023/05/06 04:15:33;;;;;;;10.52;7.53;;;;;;;14.90;100.00;101553.84;5072435;28;20070;-77
2023/05/06 04:17:58;;;;;;;11.57;7.57;;;;;;;15.28;100.00;101625.66;5072988;28;20104;-77
2023/05/06 04:20:24;;;;;;;10.65;7.80;;;;;;;15.63;100.00;101681.34;5071553;28;20151;-78
2023/05/06 04:22:49;;;;;;;9.10;7.25;;;;;;;15.71;100.00;101696.59;5073420;28;20617;-78
2023/05/06 04:25:17;;;;;;;10.35;7.35;;;;;;;15.70;100.00;101703.41;5074019;28;20094;-77
2023/05/06 04:27:42;;;;;;;8.48;7.15;;;;;;;15.87;100.00;101719.28;5079775;28;20096;-77
2023/05/06 04:30:08;;;;;;;9.80;7.07;;;;;;;15.84;100.00;101728.78;5056699;28;20190;-77
2023/05/06 04:32:33;;;;;;;9.95;7.43;;;;;;;16.00;100.00;101766.91;5065130;28;20040;-77
2023/05/06 04:34:59;;;;;;;10.32;7.20;;;;;;;15.96;100.00;101754.16;5076144;28;20032;-77
2023/05/06 04:37:27;;;;;;;12.02;6.70;;;;;;;15.89;100.00;101750.88;5072889;28;20025;-76
2023/05/06 04:39:53;;;;;;;9.70;6.82;;;;;;;16.21;100.00;101806.63;5073709;28;20021;-77
2023/05/06 04:42:18;;;;;;;8.07;7.28;;;;;;;16.26;100.00;101815.09;5074216;28;20025;-77
2023/05/06 04:44:44;;;;;;;8.50;6.40;;;;;;;16.70;100.00;101892.03;5072298;28;20029;-78
2023/05/06 04:47:10;;;;;;;8.43;6.43;;;;;;;16.82;100.00;101927.72;5072430;28;20475;-77
2023/05/06 04:49:36;;;;;;;8.88;7.07;;;;;;;16.68;100.00;101898.09;5081900;28;20113;-77
2023/05/06 04:52:02;;;;;;;13.70;6.97;;;;;;;17.19;100.00;101992.00;5080067;28;20036;-78
2023/05/06 04:54:27;;;;;;;9.45;6.82;;;;;;;17.24;100.00;102000.44;5072833;28;20539;-77
2023/05/06 04:56:53;;;;;;;8.65;6.60;;;;;;;16.79;100.00;101978.34;5073297;28;20116;-77
2023/05/06 04:59:18;;;;;;;9.25;6.50;;;;;;;16.96;100.00;102010.50;5077085;28;20035;-78
2023/05/06 05:01:44;;;;;;;8.20;7.07;;;;;;;17.34;100.00;102110.78;5091609;28;20032;-77
2023/05/06 05:04:10;;;;;;;12.98;6.28;;;;;;;17.74;100.00;102125.38;5054654;28;20037;-78
2023/05/06 05:06:35;;;;;;;8.98;6.53;;;;;;;17.78;100.00;102145.00;5079892;28;20030;-77
2023/05/06 05:09:00;;;;;;;9.90;6.93;;;;;;;17.64;100.00;102165.91;5093175;28;20024;-77
2023/05/06 05:11:26;;;;;;;11.80;6.55;;;;;;;17.66;100.00;102194.16;5071395;28;20079;-78
2023/05/06 05:13:51;;;;;;;9.27;6.65;;;;;;;17.68;100.00;102225.88;5062972;28;20042;-74
2023/05/06 05:16:17;;;;;;;8.77;6.07;;;;;;;17.77;100.00;102187.06;5064712;28;20124;-75
2023/05/06 05:18:42;;;;;;;7.60;6.50;;;;;;;17.88;100.00;102252.03;5071627;28;20024;-75
2023/05/06 05:21:08;;;;;;;10.48;6.03;;;;;;;18.12;100.00;102287.53;5080730;28;20052;-77
2023/05/06 05:23:33;;;;;;;9.02;6.53;;;;;;;18.20;100.00;102301.94;5078032;28;20044;-73
2023/05/06 05:25:59;;;;;;;8.45;6.53;;;;;;;17.99;100.00;102315.28;5092314;28;20032;-77
2023/05/06 05:28:24;;;;;;;8.82;6.53;;;;;;;18.22;100.00;102350.84;5074673;28;20097;-76
2023/05/06 05:30:50;;;;;;;7.88;6.28;;;;;;;18.50;100.00;102394.94;5084192;28;20112;-79
2023/05/06 05:33:15;;;;;;;8.85;6.28;;;;;;;18.09;100.00;102362.28;5070749;28;20043;-78
2023/05/06 05:35:41;;;;;;;8.68;5.80;;;;;;;18.39;100.00;102420.88;5082590;28;20418;-78
2023/05/06 05:38:07;;;;;;;7.80;6.18;;;;;;;18.52;100.00;102431.81;5091606;28;20027;-77
2023/05/06 05:40:34;;;;;;;8.27;6.15;;;;;;;18.52;100.00;102470.47;5073580;28;20503;-78
2023/05/06 05:43:00;;;;;;;7.47;5.70;;;;;;;18.65;100.00;102531.19;5072322;28;20119;-80
2023/05/06 05:45:25;;;;;;;7.35;5.95;;;;;;;18.54;100.00;102544.28;5072213;28;20142;-80
2023/05/06 05:47:52;;;;;;;9.05;5.78;;;;;;;18.98;100.00;102579.47;5067012;28;20430;-78
2023/05/06 05:50:18;;;;;;;8.63;6.18;;;;;;;19.15;100.00;102623.84;5082215;28;20021;-82
2023/05/06 05:52:43;;;;;;;9.15;5.55;;;;;;;18.88;100.00;102601.16;5065518;28;20036;-79
2023/05/06 05:55:08;;;;;;;6.95;5.50;;;;;;;19.32;100.00;102606.25;5071979;28;20121;-77
2023/05/06 05:57:35;;;;;;;8.38;5.25;;;;;;;18.81;100.00;102545.47;5074615;28;20415;-77
2023/05/06 06:00:03;;;;;;;5.95;5.05;;;;;;;19.72;100.00;102613.97;5082564;28;20114;-78
2023/05/06 06:02:28;;;;;;;9.68;5.03;;;;;;;19.35;100.00;102548.63;5073394;28;20043;-82
2023/05/06 06:04:53;;;;;;;7.50;5.40;;;;;;;19.40;100.00;102554.50;5070169;28;20037;-75
2023/05/06 06:07:20;;;;;;;7.57;4.90;;;;;;;19.15;100.00;102492.28;5057436;28;20403;-76
2023/05/06 06:09:49;;;;;;;10.73;5.95;;;;;;;19.49;100.00;102484.63;5070834;28;20028;-78
2023/05/06 06:12:14;;;;;;;6.50;5.00;;;;;;;19.64;100.00;102441.19;5076705;28;20032;-79
2023/05/06 06:14:40;;;;;;;5.10;4.60;;;;;;;19.74;100.00;102431.47;5079927;28;20024;-80
2023/05/06 06:17:05;;;;;;;8.65;5.07;;;;;;;19.98;100.00;102429.97;5081746;28;20042;-79
2023/05/06 06:19:31;;;;;;;9.40;5.10;;;;;;;20.05;100.00;102359.16;5051967;28;20480;-76
2023/05/06 06:21:56;;;;;;;12.18;5.07;;;;;;;20.41;100.00;102320.19;5086025;28;20034;-80
2023/05/06 06:24:23;;;;;;;5.97;4.90;;;;;;;20.57;100.00;102212.81;5083821;28;20127;-81
2023/05/06 06:26:48;;;;;;;8.77;4.72;;;;;;;20.57;100.00;102139.56;5071041;28;20062;-80
2023/05/06 06:29:14;;;;;;;7.72;4.53;;;;;;;20.99;100.00;102152.72;5067577;28;20032;-80
2023/05/06 06:31:39;;;;;;;5.97;4.70;;;;;;;21.09;100.00;102051.47;5066897;28;20063;-80
2023/05/06 06:34:05;;;;;;;7.07;4.43;;;;;;;20.79;100.00;101912.94;5082843;28;20033;-81
2023/05/06 06:36:31;;;;;;;7.85;4.07;;;;;;;20.94;100.00;101847.66;5072116;28;20495;-79
2023/05/06 06:38:56;;;;;;;5.75;4.00;;;;;;;21.00;100.00;101782.72;5085972;28;20035;-81
2023/05/06 06:41:22;;;;;;;9.13;4.07;;;;;;;21.92;100.00;101808.94;5091609;28;20036;-80
2023/05/06 06:43:47;;;;;;;6.82;4.13;;;;;;;21.81;100.00;101749.84;5088411;28;20516;-78
2023/05/06 06:46:13;;;;;;;6.72;3.90;;;;;;;21.75;100.00;101692.28;5061266;28;20039;-79
2023/05/06 06:48:38;;;;;;;8.55;3.95;;;;;;;21.03;100.00;101596.41;5075403;28;20031;-79
2023/05/06 06:51:04;;;;;;;7.70;3.53;;;;;;;21.69;100.00;101488.81;5069946;28;20044;-80
2023/05/06 06:53:29;;;;;;;5.43;3.25;;;;;;;21.53;100.00;100662.19;5075525;28;20404;-81
2023/05/06 06:55:54;;;;;;;4.50;3.20;;;;;;;21.48;100.00;101009.28;5068672;28;20033;-82
2023/05/06 06:58:20;;;;;;;5.13;3.20;;;;;;;22.15;100.00;102563.81;5059877;28;20036;-77
2023/05/06 07:00:45;;;;;;;8.70;3.83;;;;;;;21.72;100.00;102493.59;5067065;28;20035;-80
2023/05/06 07:03:14;;;;;;;7.28;3.83;;;;;;;21.61;100.00;102424.94;5066212;28;20041;-80
2023/05/06 07:05:40;;;;;;;4.55;3.60;;;;;;;21.86;100.00;102408.50;5058032;28;20020;-83
2023/05/06 07:08:05;;;;;;;12.73;3.42;;;;;;;21.54;100.00;102344.00;5070950;28;20059;-80
2023/05/06 07:10:31;;;;;;;10.43;3.47;;;;;;;21.97;100.00;102331.22;5071200;28;20070;-79
2023/05/06 07:12:57;;;;;;;5.85;3.75;;;;;;;21.08;100.00;102192.06;5070441;28;20033;-76
2023/05/06 07:15:22;;;;;;;6.80;3.53;;;;;;;21.86;100.00;102203.84;5070922;28;20041;-77
2023/05/06 07:17:48;;;;;;;6.38;3.70;;;;;;;21.61;100.00;102109.00;5069648;28;20078;-76
2023/05/06 07:20:14;;;;;;;8.88;3.50;;;;;;;21.76;100.00;102088.50;5069586;28;20135;-78
2023/05/06 07:22:40;;;;;;;7.40;3.58;;;;;;;21.96;100.00;102056.63;5070115;28;20082;-79
2023/05/06 07:25:06;;;;;;;6.85;3.50;;;;;;;22.12;100.00;101960.03;5069264;28;20037;-80
2023/05/06 07:27:31;;;;;;;5.10;3.40;;;;;;;21.88;100.00;101880.78;5068423;28;20024;-80
2023/05/06 07:29:57;;;;;;;4.80;3.20;;;;;;;22.48;100.00;101871.97;5068585;28;20435;-77
2023/05/06 07:32:22;;;;;;;6.65;3.00;;;;;;;22.09;100.00;101815.03;5069270;28;20035;-79
2023/05/06 07:34:47;;;;;;;4.90;3.08;;;;;;;22.30;100.00;101790.69;5069132;28;20066;-79
2023/05/06 07:37:13;;;;;;;8.82;3.40;;;;;;;22.40;100.00;101775.56;5069213;28;20102;-79
2023/05/06 07:39:38;;;;;;;6.30;3.50;;;;;;;22.73;100.00;101760.13;5070573;28;20509;-80
2023/05/06 07:42:04;;;;;;;8.20;3.47;;;;;;;22.49;100.00;101727.56;5069257;28;20480;-81
2023/05/06 07:44:29;;;;;;;6.13;3.50;;;;;;;22.53;100.00;101713.56;5049343;28;20115;-80
2023/05/06 07:46:55;;;;;;;4.75;3.10;;;;;;;23.01;100.00;101713.72;5066513;28;20507;-80
2023/05/06 07:49:20;;;;;;;5.13;3.33;;;;;;;22.19;100.00;101645.22;5050825;28;20103;-79
2023/05/06 07:51:46;;;;;;;5.72;3.33;;;;;;;22.63;100.00;101652.56;5053410;28;20502;-75
2023/05/06 07:54:11;;;;;;;4.90;3.38;;;;;;;23.06;100.00;101646.81;5052905;28;20040;-79
2023/05/06 07:56:37;;;;;;;5.50;2.95;;;;;;;22.95;100.00;101670.75;5053503;28;20051;-80
2023/05/06 07:59:02;;;;;;;7.65;3.55;;;;;;;22.37;100.00;101604.59;5069845;28;20140;-79
2023/05/06 08:01:30;;;;;;;5.97;3.25;;;;;;;23.64;100.00;101658.38;5069427;28;20029;-79
2023/05/06 08:03:56;;;;;;;6.07;3.00;;;;;;;23.19;100.00;101625.31;5054166;28;20060;-77
2023/05/06 08:06:21;;;;;;;7.28;3.13;;;;;;;23.09;100.00;101587.81;5054324;28;20180;-78
2023/05/06 08:08:47;;;;;;;5.43;3.03;;;;;;;23.43;100.00;101534.91;5054620;28;20484;-76
2023/05/06 08:11:12;;;;;;;6.65;3.25;;;;;;;23.71;100.00;101444.06;5070021;28;20456;-79
2023/05/06 08:13:38;;;;;;;5.82;3.08;;;;;;;23.03;100.00;101357.19;5053884;28;20044;-78
2023/05/06 08:16:05;;;;;;;3.20;2.83;;;;;;;22.40;100.00;101229.38;5054427;28;20078;-78
2023/05/06 08:18:31;;;;;;;6.13;2.88;;;;;;;23.53;100.00;101270.31;5054297;28;20063;-78
2023/05/06 08:20:56;;;;;;;4.85;3.05;;;;;;;23.89;100.00;101240.28;5052532;28;20048;-79
2023/05/06 08:23:22;;;;;;;5.43;3.20;;;;;;;23.80;100.00;101183.72;5069091;28;20037;-79
2023/05/06 08:25:47;;;;;;;6.03;3.20;;;;;;;23.48;100.00;101138.16;5069884;28;20032;-79
2023/05/06 08:28:13;;;;;;;5.60;3.13;;;;;;;22.94;100.00;101027.34;5069253;28;20082;-77
2023/05/06 08:30:38;;;;;;;4.40;2.92;;;;;;;22.99;100.00;100976.03;5052575;28;20037;-78
2023/05/06 08:33:04;;;;;;;5.93;3.10;;;;;;;23.50;100.00;100930.31;5054013;28;20503;-78
2023/05/06 08:35:29;;;;;;;4.63;3.35;;;;;;;23.63;100.00;100905.22;5053490;28;20484;-79
2023/05/06 08:37:57;;;;;;;5.45;2.70;;;;;;;23.29;100.00;100891.00;5069507;28;20041;-79
2023/05/06 08:40:25;;;;;;;5.18;3.10;;;;;;;24.74;100.00;100886.97;5069117;28;20035;-78
2023/05/06 08:42:54;;;;;;;5.72;3.60;;;;;;;23.76;100.00;100838.50;5069203;28;20033;-78
2023/05/06 08:45:20;;;;;;;5.32;3.20;;;;;;;23.12;100.00;100764.09;5053490;28;20043;-77
2023/05/06 08:47:46;;;;;;;8.10;3.03;;;;;;;22.80;100.00;100843.25;5068913;28;20029;-77
2023/05/06 08:50:12;;;;;;;6.97;3.10;;;;;;;23.22;100.00;100815.31;5069403;28;20028;-79
2023/05/06 08:52:38;;;;;;;7.60;3.55;;;;;;;22.73;100.00;100793.53;5052863;28;20434;-78
2023/05/06 08:55:04;;;;;;;6.35;3.50;;;;;;;22.15;100.00;100765.28;5052076;28;20041;-78
2023/05/06 08:57:31;;;;;;;5.78;3.28;;;;;;;23.17;100.00;100773.28;5068618;28;20102;-79
2023/05/06 08:59:58;;;;;;;6.80;3.00;;;;;;;22.54;100.00;100813.75;5052052;28;20032;-79
2023/05/06 09:02:24;;;;;;;8.35;3.20;;;;;;;22.91;100.00;100781.13;5051889;28;20040;-79
2023/05/06 09:04:51;;;;;;;5.88;3.40;;;;;;;22.67;100.00;100712.69;5068721;28;20737;-79
2023/05/06 09:07:17;;;;;;;7.72;3.00;;;;;;;23.79;100.00;100726.59;5053320;28;20039;-78
2023/05/06 09:09:42;;;;;;;7.00;3.47;;;;;;;23.64;100.00;100609.03;5053372;28;20028;-80
2023/05/06 09:12:12;;;;;;;6.57;3.40;;;;;;;24.59;100.00;100669.56;5068094;28;20029;-79
2023/05/06 09:14:38;;;;;;;7.38;3.40;;;;;;;24.40;100.00;100606.88;5052184;28;20029;-78
2023/05/06 09:17:04;;;;;;;7.65;3.50;;;;;;;23.34;100.00;100629.38;5052194;28;20033;-79
2023/05/06 09:19:30;;;;;;;6.10;3.70;;;;;;;22.80;100.00;100666.88;5068563;28;20066;-78
2023/05/06 09:22:00;;;;;;;9.70;3.75;;;;;;;23.05;100.00;100677.25;5068663;28;20067;-79
2023/05/06 09:24:26;;;;;;;8.48;3.72;;;;;;;23.26;100.00;100684.38;5052083;28;20079;-78
2023/05/06 09:26:54;;;;;;;7.25;4.03;;;;;;;23.25;100.00;100653.34;5052935;28;20073;-78
2023/05/06 09:29:19;;;;;;;7.35;3.65;;;;;;;22.92;100.00;100653.06;5053002;28;20512;-78
2023/05/06 09:31:46;;;;;;;6.30;3.28;;;;;;;22.02;100.00;100628.88;5051673;28;20063;-78
2023/05/06 09:34:13;;;;;;;7.07;3.88;;;;;;;22.78;100.00;100629.84;5051797;28;20060;-79
2023/05/06 09:36:39;;;;;;;7.47;3.78;;;;;;;22.52;100.00;100625.56;5068397;28;20029;-78
2023/05/06 09:39:05;;;;;;;6.10;3.80;;;;;;;22.64;100.00;100656.69;5052045;28;20035;-78
2023/05/06 09:41:30;;;;;;;9.45;4.22;;;;;;;22.12;100.00;100601.44;5052432;28;20060;-79
2023/05/06 09:43:57;;;;;;;7.35;3.78;;;;;;;22.56;100.00;100673.66;5067992;28;20169;-79
2023/05/06 09:46:24;;;;;;;5.78;3.17;;;;;;;22.02;100.00;100590.84;5052945;28;20036;-78
2023/05/06 09:48:51;;;;;;;9.60;3.47;;;;;;;21.57;100.00;100583.41;5051395;28;20182;-79
2023/05/06 09:51:18;;;;;;;4.32;3.10;;;;;;;22.98;100.00;100614.56;5050892;28;20025;-77
2023/05/06 09:53:44;;;;;;;9.82;4.13;;;;;;;22.33;100.00;100587.06;5054878;28;20086;-78
2023/05/06 09:56:11;;;;;;;8.52;3.72;;;;;;;22.84;100.00;100600.91;5071519;28;20047;-77
2023/05/06 09:58:37;;;;;;;8.68;3.80;;;;;;;23.55;100.00;100586.28;5070434;28;20032;-77
2023/05/06 10:01:04;;;;;;;4.90;3.78;;;;;;;23.75;100.00;100536.34;5071346;28;20059;-77
2023/05/06 10:03:30;;;;;;;6.97;3.50;;;;;;;23.24;100.00;100470.84;5070947;28;20127;-76
2023/05/06 10:05:58;;;;;;;4.95;3.38;;;;;;;23.37;100.00;100489.00;5071249;28;20032;-76
2023/05/06 10:08:24;;;;;;;9.18;3.88;;;;;;;23.46;100.00;100487.47;5071088;28;20134;-77
2023/05/06 10:10:50;;;;;;;7.18;3.33;;;;;;;22.47;100.00;100500.59;5072373;28;20061;-77
2023/05/06 10:13:15;;;;;;;6.13;3.92;;;;;;;22.77;100.00;100517.50;5071283;28;20028;-77
2023/05/06 10:15:46;;;;;;;6.95;3.90;;;;;;;23.47;100.00;100490.00;5070523;28;20062;-75
2023/05/06 10:18:15;;;;;;;6.60;3.50;;;;;;;23.03;100.00;100485.38;5070706;28;20085;-78
2023/05/06 10:20:43;;;;;;;7.22;3.90;;;;;;;23.77;100.00;100427.16;5069834;28;20053;-78
2023/05/06 10:23:21;;;;;;;5.32;3.90;;;;;;;24.08;100.00;100445.53;5070546;28;20121;-79
2023/05/06 10:25:50;;;;;;;5.82;3.15;;;;;;;24.13;100.00;100406.19;5071717;28;20042;-78
2023/05/06 10:28:18;;;;;;;5.53;3.10;;;;;;;24.11;100.00;100378.69;5070408;28;20123;-79
2023/05/06 10:30:44;;;;;;;5.30;3.05;;;;;;;24.23;100.00;100304.91;5071354;28;20102;-78
2023/05/06 10:33:11;;;;;;;4.05;2.88;;;;;;;24.57;100.00;100296.91;5070900;28;20518;-79
2023/05/06 10:35:40;;;;;;;7.28;3.50;;;;;;;23.99;100.00;100336.22;5071828;28;20036;-78
2023/05/06 10:38:10;;;;;;;5.82;3.20;;;;;;;23.42;100.00;100336.31;5070814;28;20028;-78
2023/05/06 10:40:36;;;;;;;6.18;3.35;;;;;;;23.01;100.00;100294.44;5072130;28;20028;-78
2023/05/06 10:43:23;;;;;;;4.57;3.22;;;;;;;23.05;100.00;100353.78;5071182;28;20590;-77
2023/05/06 10:46:31;;;;;;;5.57;3.45;;;;;;;22.86;100.00;100376.78;5071707;28;20059;-78
2023/05/06 10:49:09;;;;;;;8.75;3.70;;;;;;;22.88;100.00;100387.03;5057798;28;20418;-80
2023/05/06 10:51:39;;;;;;;10.30;3.58;;;;;;;22.42;100.00;100346.22;5071676;28;20032;-78
2023/05/06 10:54:08;;;;;;;8.25;3.25;;;;;;;23.40;100.00;100366.75;5070009;28;20036;-79
2023/05/06 10:56:46;;;;;;;6.13;3.00;;;;;;;24.02;100.00;100333.41;5071745;28;20031;-79
2023/05/06 10:59:12;;;;;;;7.57;3.40;;;;;;;24.58;100.00;100310.75;5070627;28;20145;-78
2023/05/06 11:01:39;;;;;;;5.93;4.25;;;;;;;24.42;100.00;100268.72;5070929;28;20032;-79
2023/05/06 11:04:08;;;;;;;4.35;3.17;;;;;;;25.43;100.00;100287.16;5070661;28;20033;-80
2023/05/06 11:06:34;;;;;;;6.55;3.28;;;;;;;24.42;100.00;100292.13;5070353;28;20036;-79
2023/05/06 11:09:03;;;;;;;6.15;3.30;;;;;;;24.77;100.00;100275.34;5071543;28;20082;-79
2023/05/06 11:11:51;;;;;;;6.60;3.33;;;;;;;25.00;100.00;100267.44;5070487;28;20050;-79